La Puerta de La Laguna, El Salvador

5:24 PM CST on November 17, 2017 (GMT -0600)
Quintas de Santa Elena | | Change Station

Elev 3114 ft 13.64 °N, 89.28 °W | Updated 10 seconds ago

Clear
Clear
73.0 °F
Feels Like 75 °F
N
0.0
Wind Variable Wind from SSE

Today
High -- | Low -- °F
--% Chance of Precip.
Yesterday
High -- | Low -- °F
Precip. -- in
Pressure 29.92 in
Visibility 6.2 miles
Clouds Few 4600 ft
Overcast 6000 ft
Heat Index 75 °F
Dew Point 62 °F
Humidity 69%
Rainfall 0.00 in
Snow Depth Not available.
5:57 AM 5:26 PM
Waning Crescent, 0% visible
SPECI MHSC 172300Z AUTO 34012KT 9999 -DZ FEW046 OVC060 21/21 A3000 RMK AO2 DZB00 SLP131 $
Pressure 29.92 in
Visibility 6.2 miles
Clouds Few 4600 ft
Overcast 6000 ft
Heat Index 75 °F
Dew Point 62 °F
Humidity 69%
Rainfall 0.00 in
Snow Depth Not available.
5:57 AM 5:26 PM
Waning Crescent, 0% visible
SPECI MHSC 172300Z AUTO 34012KT 9999 -DZ FEW046 OVC060 21/21 A3000 RMK AO2 DZB00 SLP131 $

Get Severe Weather Alerts

Thanks for signing up!

Be on the lookout for a verification email in your inbox.

You'll start receiving the daily forecast at 6 AM.

×

10-Day Weather Forecast

No radar image for this location.
×

Almanac

Astronomy

Nov. 17, 2017 Rise Set
Actual Time
Civil Twilight
Nautical Twilight
Astronomical Twilight
Moon
Length of Visible Light
Length of Day
Tomorrow will be .
, % of the Moon is Illuminated

Today's Extremes

Country Highs Country Lows

Community

WunderPhotos

Category 6

Welcome to Category 6. This is the collective home for Weather Underground's featured writeups by Dr. Jeff Masters (right), Bob Henson (left), Chris Burt, and other regular contributors.

Nearby

Air Quality

  Air Quality AQ Index Pollutant
Not available.

Snow Depth

Station Depth Elevation

Earthquake Activity

City Distance Mag. Time & Date
Minimum magnitude displayed is 2.5.

Coastal Water Temperatures

Place Temperature

Stations

Nearby Weather Stations

Station Location Temp. Windchill Dew Point Humidity Wind Precip. Elev Updated Type